Terminal Aerodrome Forecast
Issued by NWS

Home | Current Version | Previous Version | Text Only | Print | Product List | Glossary On
Versions: 1 2 3 4 5 6 7 8 9 10 11 12 13 14 15 16 17 18 19 20 21 22 23 24 25 26 27 28 29 30 31 32 33 34 35 36
000
FTUS45 KPSR 311136
TAFSDL
TAF
KSDL 311136Z 3112/0112 VRB05KT P6SM FEW080 SCT120 BKN200
     FM312000 26007KT P6SM FEW080 SCT120 SCT250
     FM010200 VRB05KT P6SM VCTS FEW100CB SCT140 BKN250
     FM010800 VRB04KT P6SM VCSH SCT060 BKN100 OVC180=

USA.gov is the U.S. government's official web portal to all federal, state and local government web resources and services.